Time;durP1;ratioP1;P1;durP2;ratioP2;P2;SDS_P1;SDS_P2;PMS_P1;PMS_P2;Temp;Humidity;BMP_temperature;BMP_pressure;BME280_temperature;BME280_humidity;BME280_pressure;Samples;Min_cycle;Max_cycle;Signal;HPM_P1;HPM_P2
2021/04/27 00:00:12;;;;;;;;;;;18.90;40.30;;;;;;487309;244;1183;-44
2021/04/27 00:02:13;;;;;;;;;;;18.80;40.30;;;;;;487287;244;1071;-44
2021/04/27 00:04:15;;;;;;;;;;;18.70;40.40;;;;;;487529;243;2210;-44
2021/04/27 00:06:16;;;;;;;;;;;18.80;40.40;;;;;;487379;243;1191;-44
2021/04/27 00:08:17;;;;;;;;;;;18.70;40.50;;;;;;487423;243;1291;-44
2021/04/27 00:10:18;;;;;;;;;;;18.70;40.50;;;;;;487302;244;1114;-44
2021/04/27 00:12:20;;;;;;;;;;;18.70;40.50;;;;;;487608;243;1119;-44
2021/04/27 00:14:21;;;;;;;;;;;18.70;40.60;;;;;;487382;244;1097;-45
2021/04/27 00:16:23;;;;;;;;;;;18.60;40.70;;;;;;487382;244;1090;-44
2021/04/27 00:18:24;;;;;;;;;;;18.60;40.70;;;;;;487255;244;1204;-44
2021/04/27 00:20:26;;;;;;;;;;;18.60;40.70;;;;;;487552;244;1184;-44
2021/04/27 00:22:27;;;;;;;;;;;18.50;40.80;;;;;;487206;244;1920;-44
2021/04/27 00:24:31;;;;;;;;;;;18.50;40.80;;;;;;487455;244;2120;-44
2021/04/27 00:26:29;;;;;;;;;;;18.50;40.90;;;;;;487167;244;1478;-44
2021/04/27 00:28:30;;;;;;;;;;;18.50;40.90;;;;;;487771;244;1067;-44
2021/04/27 00:30:32;;;;;;;;;;;18.50;40.90;;;;;;487347;244;1049;-44
2021/04/27 00:32:33;;;;;;;;;;;18.50;40.90;;;;;;487370;244;1079;-44
2021/04/27 00:34:34;;;;;;;;;;;18.50;40.90;;;;;;487368;244;1059;-44
2021/04/27 00:36:36;;;;;;;;;;;18.50;41.00;;;;;;487407;244;1220;-44
2021/04/27 00:38:37;;;;;;;;;;;18.50;41.00;;;;;;487735;244;1014;-44
2021/04/27 00:40:38;;;;;;;;;;;18.40;40.90;;;;;;487538;244;1115;-45
2021/04/27 00:42:39;;;;;;;;;;;18.40;41.00;;;;;;487718;244;1234;-44
2021/04/27 00:44:41;;;;;;;;;;;18.40;41.00;;;;;;487707;244;2115;-44
2021/04/27 00:46:42;;;;;;;;;;;18.40;41.00;;;;;;487204;243;1434;-44
2021/04/27 00:48:43;;;;;;;;;;;18.40;41.00;;;;;;487207;243;1041;-44
2021/04/27 00:50:44;;;;;;;;;;;18.30;41.00;;;;;;487335;243;1273;-44
2021/04/27 00:52:46;;;;;;;;;;;18.40;41.10;;;;;;487468;244;1187;-44
2021/04/27 00:54:47;;;;;;;;;;;18.30;41.00;;;;;;487298;244;1098;-44
2021/04/27 00:56:48;;;;;;;;;;;18.30;41.00;;;;;;487607;241;1383;-44
2021/04/27 00:58:50;;;;;;;;;;;18.30;41.00;;;;;;487480;244;1057;-44
2021/04/27 01:00:51;;;;;;;;;;;18.30;41.00;;;;;;487663;244;1045;-44
2021/04/27 01:02:52;;;;;;;;;;;18.30;41.00;;;;;;487785;244;1047;-44
2021/04/27 01:04:54;;;;;;;;;;;18.30;41.10;;;;;;487718;244;2107;-44
2021/04/27 01:06:55;;;;;;;;;;;18.30;41.10;;;;;;487306;243;1195;-44
2021/04/27 01:08:56;;;;;;;;;;;18.30;41.10;;;;;;487706;244;1114;-45
2021/04/27 01:10:57;;;;;;;;;;;18.20;41.10;;;;;;487211;243;1141;-44
2021/04/27 01:12:59;;;;;;;;;;;18.20;41.20;;;;;;487240;243;1094;-44
2021/04/27 01:15:00;;;;;;;;;;;18.20;41.20;;;;;;487685;243;1117;-44
2021/04/27 01:17:01;;;;;;;;;;;18.20;41.20;;;;;;487308;244;1182;-44
2021/04/27 01:19:03;;;;;;;;;;;18.20;41.20;;;;;;487771;244;1064;-44
2021/04/27 01:21:04;;;;;;;;;;;18.20;41.20;;;;;;487427;243;1173;-44
2021/04/27 01:23:05;;;;;;;;;;;18.20;41.30;;;;;;487415;243;2198;-44
2021/04/27 01:25:07;;;;;;;;;;;18.20;41.30;;;;;;487318;244;1047;-44
2021/04/27 01:27:08;;;;;;;;;;;18.10;41.30;;;;;;487266;244;2217;-44
2021/04/27 01:29:09;;;;;;;;;;;18.10;41.30;;;;;;487531;243;1072;-44
2021/04/27 01:31:10;;;;;;;;;;;18.10;41.30;;;;;;487349;242;1152;-44
2021/04/27 01:33:12;;;;;;;;;;;18.10;41.20;;;;;;487423;244;1025;-44
2021/04/27 01:35:13;;;;;;;;;;;18.20;41.20;;;;;;487291;244;1087;-44
2021/04/27 01:37:14;;;;;;;;;;;18.10;41.20;;;;;;487225;244;1283;-44
2021/04/27 01:39:15;;;;;;;;;;;18.10;41.30;;;;;;487246;244;1034;-44
2021/04/27 01:41:17;;;;;;;;;;;18.00;41.40;;;;;;487600;244;1178;-44
2021/04/27 01:43:18;;;;;;;;;;;18.00;41.40;;;;;;487614;244;2198;-44
2021/04/27 01:45:20;;;;;;;;;;;18.00;41.40;;;;;;487320;243;1100;-44
2021/04/27 01:47:21;;;;;;;;;;;18.00;41.30;;;;;;487371;241;1187;-44
2021/04/27 01:49:22;;;;;;;;;;;18.00;41.50;;;;;;487729;243;1056;-44
2021/04/27 01:51:24;;;;;;;;;;;18.00;41.40;;;;;;487354;243;1232;-44
2021/04/27 01:53:25;;;;;;;;;;;18.00;41.50;;;;;;487467;244;1056;-44
2021/04/27 01:55:26;;;;;;;;;;;18.00;41.40;;;;;;487734;243;977;-44
2021/04/27 01:57:27;;;;;;;;;;;18.00;41.40;;;;;;487385;244;1188;-44
2021/04/27 01:59:29;;;;;;;;;;;18.00;41.40;;;;;;487495;244;982;-44
2021/04/27 02:01:30;;;;;;;;;;;17.90;41.50;;;;;;487290;243;1148;-44
2021/04/27 02:03:31;;;;;;;;;;;17.90;41.50;;;;;;487267;244;2163;-44
2021/04/27 02:05:32;;;;;;;;;;;17.90;41.50;;;;;;487432;244;1050;-44
2021/04/27 02:07:34;;;;;;;;;;;17.90;41.50;;;;;;487376;243;1214;-44
2021/04/27 02:09:35;;;;;;;;;;;18.00;41.50;;;;;;487563;244;1070;-44
2021/04/27 02:11:36;;;;;;;;;;;17.90;41.40;;;;;;487356;244;1140;-44
2021/04/27 02:13:37;;;;;;;;;;;17.90;41.50;;;;;;487697;243;1049;-44
2021/04/27 02:15:39;;;;;;;;;;;17.90;41.50;;;;;;487413;244;1061;-44
2021/04/27 02:17:40;;;;;;;;;;;17.90;41.50;;;;;;487435;244;1047;-44
2021/04/27 02:19:42;;;;;;;;;;;17.90;41.60;;;;;;487509;244;1077;-44
2021/04/27 02:21:43;;;;;;;;;;;17.90;41.50;;;;;;487437;244;1390;-44
2021/04/27 02:23:44;;;;;;;;;;;17.90;41.50;;;;;;487559;243;2203;-44
2021/04/27 02:25:46;;;;;;;;;;;17.90;41.50;;;;;;487236;244;1065;-44
2021/04/27 02:27:47;;;;;;;;;;;17.90;41.40;;;;;;487286;243;1146;-44
2021/04/27 02:29:48;;;;;;;;;;;17.90;41.50;;;;;;487545;243;1085;-44
2021/04/27 02:31:49;;;;;;;;;;;17.90;41.50;;;;;;487393;243;1199;-44
2021/04/27 02:33:51;;;;;;;;;;;17.90;41.50;;;;;;487237;244;1122;-44
2021/04/27 02:35:52;;;;;;;;;;;17.80;41.50;;;;;;487316;243;1050;-44
2021/04/27 02:37:53;;;;;;;;;;;17.80;41.60;;;;;;487301;244;1163;-44
2021/04/27 02:39:55;;;;;;;;;;;17.80;41.60;;;;;;487699;243;1109;-44
2021/04/27 02:41:56;;;;;;;;;;;17.90;41.50;;;;;;487394;243;1230;-44
2021/04/27 02:43:57;;;;;;;;;;;18.20;40.90;;;;;;487341;244;2190;-44
2021/04/27 02:45:58;;;;;;;;;;;18.60;40.00;;;;;;487759;243;1065;-44
2021/04/27 02:48:00;;;;;;;;;;;18.80;39.40;;;;;;487466;244;1091;-44
2021/04/27 02:50:01;;;;;;;;;;;19.10;39.00;;;;;;487586;244;1038;-44
2021/04/27 02:52:02;;;;;;;;;;;19.20;38.60;;;;;;487509;244;1315;-44
2021/04/27 02:54:03;;;;;;;;;;;19.40;38.40;;;;;;487713;244;1075;-44
2021/04/27 02:56:05;;;;;;;;;;;19.40;38.10;;;;;;487218;244;1196;-44
2021/04/27 02:58:06;;;;;;;;;;;19.50;37.90;;;;;;487267;244;1052;-44
2021/04/27 03:00:07;;;;;;;;;;;19.60;37.80;;;;;;487480;243;1203;-44
2021/04/27 03:02:09;;;;;;;;;;;19.70;37.80;;;;;;487146;244;1314;-44
2021/04/27 03:04:10;;;;;;;;;;;19.70;37.70;;;;;;487295;244;2155;-44
2021/04/27 03:06:11;;;;;;;;;;;19.80;37.60;;;;;;487155;243;1099;-44
2021/04/27 03:08:12;;;;;;;;;;;19.80;37.40;;;;;;487268;244;1203;-44
2021/04/27 03:10:14;;;;;;;;;;;19.80;37.40;;;;;;486991;244;1267;-45
2021/04/27 03:12:15;;;;;;;;;;;19.90;37.30;;;;;;487275;244;1117;-44
2021/04/27 03:14:16;;;;;;;;;;;20.00;37.30;;;;;;487463;244;1084;-44
2021/04/27 03:16:18;;;;;;;;;;;20.00;37.20;;;;;;487443;244;1042;-44
2021/04/27 03:18:19;;;;;;;;;;;20.00;37.10;;;;;;487295;244;1056;-45
2021/04/27 03:20:20;;;;;;;;;;;20.00;37.00;;;;;;487204;244;1164;-45
2021/04/27 03:22:21;;;;;;;;;;;20.00;37.00;;;;;;487610;244;1133;-44
2021/04/27 03:24:23;;;;;;;;;;;20.10;37.00;;;;;;487368;244;2131;-45
2021/04/27 03:26:24;;;;;;;;;;;20.10;36.90;;;;;;487638;244;1051;-44
2021/04/27 03:28:25;;;;;;;;;;;20.20;36.90;;;;;;487433;243;1048;-44
2021/04/27 03:30:27;;;;;;;;;;;20.20;36.80;;;;;;487379;243;1081;-44
2021/04/27 03:32:28;;;;;;;;;;;20.20;36.80;;;;;;487255;244;1644;-44
2021/04/27 03:34:29;;;;;;;;;;;20.20;36.70;;;;;;487169;244;1104;-44
2021/04/27 03:36:31;;;;;;;;;;;20.20;36.70;;;;;;487316;242;1195;-44
2021/04/27 03:38:32;;;;;;;;;;;20.30;36.70;;;;;;487244;244;1378;-44
2021/04/27 03:40:33;;;;;;;;;;;20.30;36.60;;;;;;487602;244;1119;-44
2021/04/27 03:42:34;;;;;;;;;;;20.30;36.50;;;;;;487399;244;1315;-44
2021/04/27 03:44:35;;;;;;;;;;;20.40;36.50;;;;;;487270;244;2147;-45
2021/04/27 03:46:37;;;;;;;;;;;20.40;36.50;;;;;;487290;244;1307;-45
2021/04/27 03:48:38;;;;;;;;;;;20.40;36.50;;;;;;487732;243;1084;-44
2021/04/27 03:50:40;;;;;;;;;;;20.40;36.50;;;;;;487724;244;1063;-45
2021/04/27 03:52:41;;;;;;;;;;;20.40;36.40;;;;;;487319;243;1184;-44
2021/04/27 03:54:42;;;;;;;;;;;20.50;36.40;;;;;;487517;243;1074;-44
2021/04/27 03:56:43;;;;;;;;;;;20.50;36.40;;;;;;487281;244;1068;-44
2021/04/27 03:58:45;;;;;;;;;;;20.50;36.40;;;;;;487705;244;1124;-44
2021/04/27 04:00:46;;;;;;;;;;;20.50;36.40;;;;;;487329;244;1097;-44
2021/04/27 04:02:47;;;;;;;;;;;20.50;36.30;;;;;;487332;243;1082;-45
2021/04/27 04:04:49;;;;;;;;;;;20.50;36.30;;;;;;487248;244;2210;-44
2021/04/27 04:06:50;;;;;;;;;;;20.50;36.20;;;;;;487247;244;1735;-45
2021/04/27 04:08:51;;;;;;;;;;;20.60;36.30;;;;;;487576;244;1262;-44
2021/04/27 04:10:52;;;;;;;;;;;20.60;36.20;;;;;;487415;244;1106;-45
2021/04/27 04:12:54;;;;;;;;;;;20.60;36.20;;;;;;487208;244;1183;-44
2021/04/27 04:14:55;;;;;;;;;;;20.60;36.20;;;;;;487201;244;1113;-45
2021/04/27 04:16:56;;;;;;;;;;;20.60;36.20;;;;;;487455;243;1175;-45
2021/04/27 04:18:58;;;;;;;;;;;20.60;36.20;;;;;;487248;244;1073;-45
2021/04/27 04:20:59;;;;;;;;;;;20.60;36.20;;;;;;487172;244;1050;-44
2021/04/27 04:23:00;;;;;;;;;;;20.70;36.20;;;;;;487726;244;1183;-44
2021/04/27 04:25:01;;;;;;;;;;;20.70;36.20;;;;;;487266;244;2190;-44
2021/04/27 04:27:03;;;;;;;;;;;20.70;36.20;;;;;;487240;244;1149;-44
2021/04/27 04:29:04;;;;;;;;;;;20.70;36.10;;;;;;487286;244;1088;-44
2021/04/27 04:31:05;;;;;;;;;;;20.70;36.10;;;;;;487201;243;1329;-44
2021/04/27 04:33:07;;;;;;;;;;;20.70;36.10;;;;;;487135;243;1207;-44
2021/04/27 04:35:08;;;;;;;;;;;20.70;36.10;;;;;;487584;244;1108;-44
2021/04/27 04:37:09;;;;;;;;;;;20.70;36.10;;;;;;487025;243;1144;-45
2021/04/27 04:39:11;;;;;;;;;;;20.70;36.00;;;;;;487086;243;1174;-44
2021/04/27 04:41:12;;;;;;;;;;;20.70;36.00;;;;;;487208;244;1697;-44
2021/04/27 04:43:15;;;;;;;;;;;20.70;36.00;;;;;;487035;244;1131;-44
2021/04/27 04:45:15;;;;;;;;;;;20.80;36.10;;;;;;487015;244;2190;-44
2021/04/27 04:47:16;;;;;;;;;;;20.80;36.00;;;;;;486881;243;1693;-45
2021/04/27 04:49:18;;;;;;;;;;;20.80;36.00;;;;;;487258;244;1241;-45
2021/04/27 04:51:19;;;;;;;;;;;20.80;36.00;;;;;;487382;240;1334;-44
2021/04/27 04:53:20;;;;;;;;;;;20.80;36.00;;;;;;487100;244;1136;-45
2021/04/27 04:55:21;;;;;;;;;;;20.80;36.00;;;;;;487015;244;1179;-44
2021/04/27 04:57:23;;;;;;;;;;;20.80;36.00;;;;;;486830;243;1084;-45
2021/04/27 04:59:24;;;;;;;;;;;20.80;36.00;;;;;;486956;243;1126;-45
2021/04/27 05:01:25;;;;;;;;;;;20.80;36.00;;;;;;487018;244;1191;-44
2021/04/27 05:03:28;;;;;;;;;;;20.90;36.00;;;;;;486963;244;1109;-44
2021/04/27 05:05:28;;;;;;;;;;;20.90;36.00;;;;;;486762;244;2378;-44
2021/04/27 05:07:31;;;;;;;;;;;20.90;36.00;;;;;;486869;244;1292;-44
2021/04/27 05:09:30;;;;;;;;;;;20.90;36.00;;;;;;486856;237;1345;-44
2021/04/27 05:11:32;;;;;;;;;;;20.90;36.00;;;;;;486963;244;1142;-44
2021/04/27 05:13:33;;;;;;;;;;;20.90;36.00;;;;;;486961;243;1300;-45
2021/04/27 05:15:34;;;;;;;;;;;20.90;36.00;;;;;;486959;244;1242;-44
2021/04/27 05:17:35;;;;;;;;;;;20.90;36.00;;;;;;486964;244;1115;-44
2021/04/27 05:19:37;;;;;;;;;;;20.90;35.90;;;;;;487289;243;1088;-44
2021/04/27 05:21:38;;;;;;;;;;;20.90;35.90;;;;;;487259;244;1075;-44
2021/04/27 05:23:39;;;;;;;;;;;20.90;35.90;;;;;;487001;244;1157;-44
2021/04/27 05:25:41;;;;;;;;;;;20.90;35.90;;;;;;487101;244;2151;-44
2021/04/27 05:27:42;;;;;;;;;;;20.90;35.90;;;;;;487165;244;1103;-45
2021/04/27 05:29:43;;;;;;;;;;;20.90;35.90;;;;;;486926;243;1099;-45
2021/04/27 05:31:46;;;;;;;;;;;20.90;35.90;;;;;;486864;244;1087;-45
2021/04/27 05:33:46;;;;;;;;;;;20.90;35.90;;;;;;486940;243;1764;-44
2021/04/27 05:35:47;;;;;;;;;;;20.90;35.90;;;;;;486945;243;1088;-45
2021/04/27 05:37:49;;;;;;;;;;;20.90;35.90;;;;;;486963;244;1221;-45
2021/04/27 05:39:50;;;;;;;;;;;21.00;35.90;;;;;;486958;244;1220;-44
2021/04/27 05:41:51;;;;;;;;;;;21.00;35.90;;;;;;486823;244;1367;-44
2021/04/27 05:43:52;;;;;;;;;;;21.00;35.80;;;;;;486936;244;1092;-44
2021/04/27 05:45:54;;;;;;;;;;;21.00;35.80;;;;;;486840;244;2146;-45
2021/04/27 05:47:55;;;;;;;;;;;21.00;35.80;;;;;;486998;244;1180;-45
2021/04/27 05:49:56;;;;;;;;;;;21.00;35.80;;;;;;487102;244;1157;-45
2021/04/27 05:51:58;;;;;;;;;;;21.00;35.80;;;;;;486868;243;1125;-44
2021/04/27 05:53:59;;;;;;;;;;;21.00;35.80;;;;;;487096;244;1067;-45
2021/04/27 05:56:00;;;;;;;;;;;21.00;35.80;;;;;;486949;244;1111;-44
2021/04/27 05:58:01;;;;;;;;;;;21.00;35.80;;;;;;487018;243;1076;-45
2021/04/27 06:00:03;;;;;;;;;;;21.00;35.80;;;;;;486843;244;1167;-45
2021/04/27 06:02:04;;;;;;;;;;;21.00;35.80;;;;;;486890;243;1350;-44
2021/04/27 06:04:05;;;;;;;;;;;21.10;35.90;;;;;;486829;244;1096;-44
2021/04/27 06:06:07;;;;;;;;;;;21.10;35.80;;;;;;486980;243;2199;-45
2021/04/27 06:08:08;;;;;;;;;;;21.10;35.80;;;;;;486849;244;1113;-45
2021/04/27 06:10:09;;;;;;;;;;;21.10;35.80;;;;;;486706;244;1162;-44
2021/04/27 06:12:11;;;;;;;;;;;21.10;35.70;;;;;;486719;244;1147;-44
2021/04/27 06:14:12;;;;;;;;;;;21.10;35.70;;;;;;486816;243;1114;-45
2021/04/27 06:16:13;;;;;;;;;;;21.10;35.80;;;;;;486845;243;1137;-44
2021/04/27 06:18:15;;;;;;;;;;;21.10;35.80;;;;;;486829;244;1092;-44
2021/04/27 06:20:16;;;;;;;;;;;21.10;35.80;;;;;;486959;244;1225;-45
2021/04/27 06:22:17;;;;;;;;;;;21.20;35.80;;;;;;486782;243;1179;-45
2021/04/27 06:24:18;;;;;;;;;;;21.10;35.70;;;;;;486772;243;1158;-45
2021/04/27 06:26:20;;;;;;;;;;;21.10;35.70;;;;;;486757;243;2201;-44
2021/04/27 06:28:21;;;;;;;;;;;21.10;35.70;;;;;;486685;243;1157;-44
2021/04/27 06:30:23;;;;;;;;;;;21.20;35.70;;;;;;486636;244;1434;-44
2021/04/27 06:32:24;;;;;;;;;;;21.20;35.70;;;;;;486667;244;1081;-44
2021/04/27 06:34:25;;;;;;;;;;;21.20;35.80;;;;;;486537;244;1246;-45
2021/04/27 06:36:27;;;;;;;;;;;21.20;35.70;;;;;;486487;244;1308;-44
2021/04/27 06:38:28;;;;;;;;;;;21.20;35.70;;;;;;486627;244;1223;-44
2021/04/27 06:40:29;;;;;;;;;;;21.20;35.70;;;;;;486511;244;1124;-44
2021/04/27 06:42:30;;;;;;;;;;;21.20;35.70;;;;;;486498;244;1224;-45
2021/04/27 06:44:32;;;;;;;;;;;21.20;35.70;;;;;;486686;244;1194;-44
2021/04/27 06:46:33;;;;;;;;;;;21.20;35.70;;;;;;486606;243;2418;-44
2021/04/27 06:48:35;;;;;;;;;;;21.20;35.60;;;;;;486638;244;1107;-44
2021/04/27 06:50:36;;;;;;;;;;;21.20;35.60;;;;;;486611;244;1072;-45
2021/04/27 06:52:37;;;;;;;;;;;21.20;35.60;;;;;;486727;244;1168;-44
2021/04/27 06:54:38;;;;;;;;;;;21.20;35.60;;;;;;486681;244;1126;-45
2021/04/27 06:56:40;;;;;;;;;;;21.20;35.60;;;;;;486672;244;1226;-45
2021/04/27 06:58:41;;;;;;;;;;;21.20;35.60;;;;;;486990;243;1079;-45
2021/04/27 07:00:42;;;;;;;;;;;21.30;35.60;;;;;;486727;244;1206;-45
2021/04/27 07:02:44;;;;;;;;;;;21.20;35.60;;;;;;486709;244;1179;-44
2021/04/27 07:04:45;;;;;;;;;;;21.20;35.60;;;;;;486534;244;1088;-45
2021/04/27 07:06:46;;;;;;;;;;;21.20;35.60;;;;;;486621;244;2185;-45
2021/04/27 07:08:47;;;;;;;;;;;21.30;35.60;;;;;;486591;244;1188;-45
2021/04/27 07:10:49;;;;;;;;;;;21.20;35.60;;;;;;486527;244;1260;-44
2021/04/27 07:12:50;;;;;;;;;;;21.30;35.60;;;;;;486658;244;1110;-44
2021/04/27 07:14:52;;;;;;;;;;;21.30;35.60;;;;;;486589;243;1122;-44
2021/04/27 07:16:53;;;;;;;;;;;21.30;35.60;;;;;;486519;244;1267;-44
2021/04/27 07:18:54;;;;;;;;;;;21.30;35.60;;;;;;486444;244;1091;-44
2021/04/27 07:20:55;;;;;;;;;;;21.30;35.60;;;;;;486365;243;1104;-44
2021/04/27 07:22:58;;;;;;;;;;;21.30;35.60;;;;;;486483;244;1112;-44
2021/04/27 07:24:58;;;;;;;;;;;21.30;35.60;;;;;;486415;243;2144;-45
2021/04/27 07:26:59;;;;;;;;;;;21.30;35.60;;;;;;486502;244;2122;-45
2021/04/27 07:29:00;;;;;;;;;;;21.30;35.60;;;;;;486631;244;1314;-44
2021/04/27 07:31:02;;;;;;;;;;;21.30;35.60;;;;;;486514;244;1106;-45
2021/04/27 07:33:03;;;;;;;;;;;21.30;35.60;;;;;;486584;244;1268;-44
2021/04/27 07:35:04;;;;;;;;;;;21.30;35.60;;;;;;486589;243;1100;-45
2021/04/27 07:37:06;;;;;;;;;;;21.30;35.50;;;;;;486711;243;1174;-44
2021/04/27 07:39:07;;;;;;;;;;;21.30;35.50;;;;;;486686;244;1237;-45
2021/04/27 07:41:08;;;;;;;;;;;21.30;35.60;;;;;;486726;244;1160;-45
2021/04/27 07:43:09;;;;;;;;;;;21.30;35.60;;;;;;486571;244;1081;-45
2021/04/27 07:45:11;;;;;;;;;;;21.30;35.60;;;;;;486655;244;1164;-44
2021/04/27 07:47:12;;;;;;;;;;;21.30;35.60;;;;;;486545;244;2198;-44
2021/04/27 07:49:14;;;;;;;;;;;21.30;35.50;;;;;;486581;244;1215;-45
2021/04/27 07:51:16;;;;;;;;;;;21.30;35.50;;;;;;486541;243;1266;-45
2021/04/27 07:53:16;;;;;;;;;;;21.30;35.50;;;;;;486497;244;1152;-45
2021/04/27 07:55:18;;;;;;;;;;;21.30;35.50;;;;;;486434;244;1129;-45
2021/04/27 07:57:19;;;;;;;;;;;21.30;35.50;;;;;;486324;243;1267;-45
2021/04/27 07:59:20;;;;;;;;;;;21.30;35.60;;;;;;485996;244;1102;-44
2021/04/27 08:01:21;;;;;;;;;;;21.30;35.60;;;;;;486420;244;1206;-44
2021/04/27 08:03:23;;;;;;;;;;;21.30;35.50;;;;;;486510;244;1098;-45
2021/04/27 08:05:24;;;;;;;;;;;21.40;35.50;;;;;;486537;244;2210;-44
2021/04/27 08:07:26;;;;;;;;;;;21.30;35.50;;;;;;486526;243;1175;-45
2021/04/27 08:09:27;;;;;;;;;;;21.40;35.50;;;;;;486608;244;2158;-45
2021/04/27 08:11:28;;;;;;;;;;;21.30;35.50;;;;;;486594;244;1166;-45
2021/04/27 08:13:29;;;;;;;;;;;21.40;35.60;;;;;;486651;244;1125;-44
2021/04/27 08:15:30;;;;;;;;;;;21.30;35.50;;;;;;486591;244;1117;-45
2021/04/27 08:17:33;;;;;;;;;;;21.40;35.60;;;;;;486575;244;1187;-45
2021/04/27 08:19:33;;;;;;;;;;;21.40;35.60;;;;;;486596;244;2132;-44
2021/04/27 08:21:34;;;;;;;;;;;21.40;35.60;;;;;;486555;244;1143;-44
2021/04/27 08:23:36;;;;;;;;;;;21.40;35.60;;;;;;486471;243;1100;-44
2021/04/27 08:25:37;;;;;;;;;;;21.30;35.50;;;;;;487298;244;2195;-44
2021/04/27 08:27:38;;;;;;;;;;;21.40;35.60;;;;;;486899;244;1106;-45
2021/04/27 08:29:40;;;;;;;;;;;21.40;35.60;;;;;;486767;244;1094;-44
2021/04/27 08:31:41;;;;;;;;;;;21.40;35.60;;;;;;486540;244;1217;-45
2021/04/27 08:33:42;;;;;;;;;;;21.40;35.60;;;;;;486611;244;1307;-44
2021/04/27 08:35:44;;;;;;;;;;;21.40;35.60;;;;;;486520;244;1218;-44
2021/04/27 08:37:45;;;;;;;;;;;21.40;35.60;;;;;;486409;244;2279;-45
2021/04/27 08:39:46;;;;;;;;;;;21.40;35.60;;;;;;486605;244;1135;-45
2021/04/27 08:41:47;;;;;;;;;;;21.40;35.60;;;;;;486581;243;1220;-44
2021/04/27 08:43:48;;;;;;;;;;;21.40;35.60;;;;;;486627;244;1126;-44
2021/04/27 08:45:50;;;;;;;;;;;21.40;35.60;;;;;;486486;244;2197;-45
2021/04/27 08:47:51;;;;;;;;;;;21.40;35.50;;;;;;486511;243;1202;-45
2021/04/27 08:49:52;;;;;;;;;;;21.40;35.50;;;;;;486457;244;1224;-44
2021/04/27 08:51:54;;;;;;;;;;;21.50;35.50;;;;;;486437;244;1139;-45
2021/04/27 08:53:55;;;;;;;;;;;21.40;35.50;;;;;;486652;244;1108;-45
2021/04/27 08:55:58;;;;;;;;;;;21.40;35.50;;;;;;486573;242;1379;-45
2021/04/27 08:57:57;;;;;;;;;;;21.50;35.50;;;;;;486397;244;2269;-45
2021/04/27 08:59:59;;;;;;;;;;;21.40;35.60;;;;;;486507;243;1179;-44
2021/04/27 09:02:00;;;;;;;;;;;21.50;35.50;;;;;;486479;244;1192;-44
2021/04/27 09:04:02;;;;;;;;;;;21.40;35.40;;;;;;486537;243;1258;-44
2021/04/27 09:06:03;;;;;;;;;;;21.10;36.10;;;;;;486392;244;2159;-44
2021/04/27 09:08:04;;;;;;;;;;;20.50;37.00;;;;;;486529;244;1121;-44
2021/04/27 09:10:05;;;;;;;;;;;20.20;37.80;;;;;;486642;244;1244;-44
2021/04/27 09:12:06;;;;;;;;;;;19.90;38.30;;;;;;486575;243;1186;-44
2021/04/27 09:14:08;;;;;;;;;;;19.70;38.70;;;;;;486563;243;1179;-44
2021/04/27 09:16:09;;;;;;;;;;;19.60;39.00;;;;;;486569;243;1104;-44
2021/04/27 09:18:10;;;;;;;;;;;19.50;39.10;;;;;;486574;244;2123;-44
2021/04/27 09:20:11;;;;;;;;;;;19.40;39.30;;;;;;486606;244;1130;-44
2021/04/27 09:22:13;;;;;;;;;;;19.40;39.40;;;;;;486554;244;1538;-44
2021/04/27 09:24:14;;;;;;;;;;;19.30;39.50;;;;;;486631;244;1182;-44
2021/04/27 09:26:16;;;;;;;;;;;19.30;39.70;;;;;;486542;243;2194;-44
2021/04/27 09:28:17;;;;;;;;;;;19.20;39.80;;;;;;486557;244;1227;-45
2021/04/27 09:30:19;;;;;;;;;;;19.10;39.90;;;;;;486525;244;1203;-44
2021/04/27 09:32:20;;;;;;;;;;;19.10;40.00;;;;;;486336;244;1438;-44
2021/04/27 09:34:21;;;;;;;;;;;19.10;40.00;;;;;;486525;243;1427;-44
2021/04/27 09:36:23;;;;;;;;;;;19.10;40.00;;;;;;486374;244;1210;-44
2021/04/27 09:38:25;;;;;;;;;;;19.00;40.00;;;;;;486608;244;1205;-44
2021/04/27 09:40:25;;;;;;;;;;;19.00;40.10;;;;;;486536;244;1443;-44
2021/04/27 09:42:26;;;;;;;;;;;19.00;40.20;;;;;;486684;244;1209;-44
2021/04/27 09:44:28;;;;;;;;;;;19.00;40.20;;;;;;486555;244;1159;-44
2021/04/27 09:46:29;;;;;;;;;;;19.00;40.20;;;;;;486545;242;2135;-44
2021/04/27 09:48:31;;;;;;;;;;;19.00;40.20;;;;;;486531;244;1114;-45
2021/04/27 09:50:32;;;;;;;;;;;18.90;40.10;;;;;;486372;243;1099;-44
2021/04/27 09:52:33;;;;;;;;;;;18.90;40.30;;;;;;486362;243;1307;-44
2021/04/27 09:54:34;;;;;;;;;;;18.80;40.40;;;;;;486553;244;1084;-44
2021/04/27 09:56:36;;;;;;;;;;;18.80;40.30;;;;;;486431;244;1186;-44
2021/04/27 09:58:37;;;;;;;;;;;18.80;40.40;;;;;;486447;244;1293;-44
2021/04/27 10:00:39;;;;;;;;;;;18.80;40.40;;;;;;486564;244;1166;-44
2021/04/27 10:02:40;;;;;;;;;;;18.70;40.40;;;;;;486463;244;1118;-44
2021/04/27 10:04:41;;;;;;;;;;;18.70;40.50;;;;;;486746;242;1209;-44
2021/04/27 10:06:42;;;;;;;;;;;18.70;40.50;;;;;;487074;240;2186;-44
2021/04/27 10:08:44;;;;;;;;;;;18.70;40.60;;;;;;486590;244;1104;-46
2021/04/27 10:10:45;;;;;;;;;;;18.70;40.50;;;;;;486491;243;1176;-44
2021/04/27 10:12:47;;;;;;;;;;;18.70;40.50;;;;;;486509;244;1300;-44
2021/04/27 10:14:48;;;;;;;;;;;18.70;40.60;;;;;;486525;244;1108;-44
2021/04/27 10:16:50;;;;;;;;;;;18.60;40.60;;;;;;486471;244;1215;-44
2021/04/27 10:18:51;;;;;;;;;;;18.60;40.70;;;;;;486563;244;1200;-44
2021/04/27 10:20:52;;;;;;;;;;;18.60;40.70;;;;;;486542;244;1288;-44
2021/04/27 10:22:53;;;;;;;;;;;18.60;40.70;;;;;;486631;244;1146;-44
2021/04/27 10:24:55;;;;;;;;;;;18.60;40.60;;;;;;486534;244;1165;-44
2021/04/27 10:26:56;;;;;;;;;;;18.60;40.70;;;;;;486590;243;2194;-44
2021/04/27 10:28:57;;;;;;;;;;;18.60;40.70;;;;;;486636;244;1311;-44
2021/04/27 10:30:59;;;;;;;;;;;18.60;40.70;;;;;;486680;244;1305;-44
2021/04/27 10:33:00;;;;;;;;;;;18.50;40.70;;;;;;486630;244;1137;-44
2021/04/27 10:35:01;;;;;;;;;;;18.60;40.70;;;;;;486495;244;1224;-44
2021/04/27 10:37:02;;;;;;;;;;;18.60;40.60;;;;;;486572;243;1238;-44
2021/04/27 10:39:04;;;;;;;;;;;18.60;40.60;;;;;;486426;243;1254;-44
2021/04/27 10:41:05;;;;;;;;;;;18.50;40.70;;;;;;486628;243;1147;-44
2021/04/27 10:43:06;;;;;;;;;;;18.50;40.70;;;;;;486321;244;1164;-44
2021/04/27 10:45:08;;;;;;;;;;;18.50;40.80;;;;;;486455;244;1138;-44
2021/04/27 10:47:09;;;;;;;;;;;18.50;40.70;;;;;;486629;244;2154;-44
2021/04/27 10:49:10;;;;;;;;;;;18.50;40.60;;;;;;486578;243;1116;-44
2021/04/27 10:51:11;;;;;;;;;;;18.50;40.70;;;;;;486457;244;1107;-44
2021/04/27 10:53:13;;;;;;;;;;;18.50;40.80;;;;;;486450;244;1186;-44
2021/04/27 10:55:14;;;;;;;;;;;18.50;40.80;;;;;;486495;244;1112;-44
2021/04/27 10:57:15;;;;;;;;;;;18.50;40.80;;;;;;486435;243;1074;-44
2021/04/27 10:59:16;;;;;;;;;;;18.40;40.70;;;;;;486437;244;1373;-44
2021/04/27 11:01:18;;;;;;;;;;;18.50;40.80;;;;;;486450;244;1642;-44
2021/04/27 11:03:22;;;;;;;;;;;18.50;40.70;;;;;;486521;244;1304;-44
2021/04/27 11:05:20;;;;;;;;;;;18.40;40.70;;;;;;486302;243;1313;-44
2021/04/27 11:07:22;;;;;;;;;;;18.40;40.80;;;;;;486483;244;2198;-44
2021/04/27 11:09:23;;;;;;;;;;;18.40;40.90;;;;;;486597;243;1170;-44
2021/04/27 11:11:24;;;;;;;;;;;18.40;40.90;;;;;;486433;244;1267;-44
2021/04/27 11:13:25;;;;;;;;;;;18.40;40.90;;;;;;486640;244;1152;-44
2021/04/27 11:15:27;;;;;;;;;;;18.40;40.90;;;;;;486522;244;1364;-44
2021/04/27 11:17:28;;;;;;;;;;;18.40;40.80;;;;;;486609;244;1081;-44
2021/04/27 11:19:30;;;;;;;;;;;18.40;40.80;;;;;;486450;243;1091;-44
2021/04/27 11:21:31;;;;;;;;;;;18.40;40.90;;;;;;486215;244;1986;-44
2021/04/27 11:23:32;;;;;;;;;;;18.30;40.80;;;;;;486409;243;1165;-44
2021/04/27 11:25:33;;;;;;;;;;;18.40;40.80;;;;;;486631;244;1121;-44
2021/04/27 11:27:35;;;;;;;;;;;18.40;40.80;;;;;;486533;244;2193;-44
2021/04/27 11:29:37;;;;;;;;;;;18.40;40.80;;;;;;486638;243;1154;-44
2021/04/27 11:31:37;;;;;;;;;;;18.40;40.80;;;;;;486310;243;2298;-44
2021/04/27 11:33:38;;;;;;;;;;;18.40;40.80;;;;;;486342;243;1097;-44
2021/04/27 11:35:40;;;;;;;;;;;18.30;40.80;;;;;;486189;244;1070;-44
2021/04/27 11:37:41;;;;;;;;;;;18.30;40.80;;;;;;486399;243;1183;-44
2021/04/27 11:39:42;;;;;;;;;;;18.30;40.90;;;;;;486283;244;1119;-44
2021/04/27 11:41:44;;;;;;;;;;;18.30;40.90;;;;;;486227;244;1234;-44
2021/04/27 11:43:45;;;;;;;;;;;18.30;40.80;;;;;;486500;244;1132;-44
2021/04/27 11:45:46;;;;;;;;;;;18.30;40.90;;;;;;486472;243;1189;-44
2021/04/27 11:47:48;;;;;;;;;;;18.30;40.90;;;;;;486437;244;2143;-44
2021/04/27 11:49:49;;;;;;;;;;;18.30;40.90;;;;;;486528;244;1161;-44
2021/04/27 11:51:50;;;;;;;;;;;18.30;40.90;;;;;;486562;244;1166;-44
2021/04/27 11:53:52;;;;;;;;;;;18.20;40.90;;;;;;486306;244;1212;-44
2021/04/27 11:55:53;;;;;;;;;;;18.20;40.90;;;;;;486530;243;1112;-44